createdAt,value
2023-02-11T00:01:24.384Z,0.17
2023-02-11T00:03:52.491Z,0.07
2023-02-11T00:06:20.022Z,0.12
2023-02-11T00:08:47.655Z,0.10
2023-02-11T00:11:18.063Z,0.07
2023-02-11T00:13:46.252Z,0.06
2023-02-11T00:16:20.213Z,0.09
2023-02-11T00:18:48.140Z,0.09
2023-02-11T00:21:18.545Z,0.15
2023-02-11T00:23:46.377Z,0.14
2023-02-11T00:26:15.562Z,0.12
2023-02-11T00:28:44.329Z,0.14
2023-02-11T00:31:12.631Z,0.15
2023-02-11T00:33:40.436Z,0.13
2023-02-11T00:36:18.510Z,0.11
2023-02-11T00:38:49.561Z,0.12
2023-02-11T00:41:18.294Z,-0.08
2023-02-11T00:43:46.327Z,0.04
2023-02-11T00:46:14.245Z,0.09
2023-02-11T00:48:41.792Z,0.09
2023-02-11T00:51:10.289Z,0.15
2023-02-11T00:53:38.007Z,0.17
2023-02-11T00:56:05.528Z,0.09
2023-02-11T00:58:33.755Z,0.20
2023-02-11T01:01:01.713Z,0.20
2023-02-11T01:03:29.659Z,0.22
2023-02-11T01:05:57.161Z,0.28
2023-02-11T01:08:25.020Z,0.29
2023-02-11T01:11:00.577Z,0.29
2023-02-11T01:13:29.729Z,0.36
2023-02-11T01:15:58.864Z,0.42
2023-02-11T01:18:26.845Z,0.44
2023-02-11T01:20:55.170Z,0.44
2023-02-11T01:23:23.873Z,0.40
2023-02-11T01:25:52.890Z,0.47
2023-02-11T01:28:25.613Z,0.52
2023-02-11T01:30:53.929Z,0.53
2023-02-11T01:33:22.438Z,0.54
2023-02-11T01:35:50.616Z,0.53
2023-02-11T01:38:25.531Z,0.52
2023-02-11T01:40:55.736Z,0.51
2023-02-11T01:43:24.509Z,0.38
2023-02-11T01:46:03.523Z,0.34
2023-02-11T01:48:37.806Z,0.22
2023-02-11T01:51:16.300Z,0.14
2023-02-11T01:54:03.980Z,0.07
2023-02-11T01:56:49.941Z,-0.02
2023-02-11T01:59:25.281Z,-0.12
2023-02-11T02:01:59.854Z,-0.29
2023-02-11T02:04:31.798Z,-0.46
2023-02-11T02:07:08.581Z,-0.64
2023-02-11T02:09:42.633Z,-0.82
2023-02-11T02:12:10.204Z,-0.89
2023-02-11T02:14:42.122Z,-0.97
2023-02-11T02:17:36.455Z,-1.13
2023-02-11T02:20:23.567Z,-1.30
2023-02-11T02:23:12.312Z,-1.45
2023-02-11T02:25:58.238Z,-1.59
2023-02-11T02:28:46.114Z,-1.77
2023-02-11T02:31:42.534Z,-1.90
2023-02-11T02:34:20.963Z,-2.01
2023-02-11T02:36:58.338Z,-2.03
2023-02-11T02:39:32.191Z,-1.94
2023-02-11T02:41:59.850Z,-1.86
2023-02-11T02:44:27.432Z,-1.80
2023-02-11T02:46:56.186Z,-1.73
2023-02-11T02:49:23.907Z,-1.67
2023-02-11T02:52:06.984Z,-1.60
2023-02-11T02:54:49.843Z,-1.58
2023-02-11T02:57:44.694Z,-1.56
2023-02-11T03:00:42.366Z,-1.51
2023-02-11T03:03:38.773Z,-1.45
2023-02-11T03:06:12.008Z,-1.43
2023-02-11T03:08:47.631Z,-1.43
2023-02-11T03:11:19.719Z,-1.50
2023-02-11T03:13:48.917Z,-1.57
2023-02-11T03:16:22.845Z,-1.66
2023-02-11T03:18:56.898Z,-1.69
2023-02-11T03:21:25.873Z,-1.74
2023-02-11T03:24:01.079Z,-1.78
2023-02-11T03:26:49.828Z,-1.93
2023-02-11T03:29:29.007Z,-1.94
2023-02-11T03:31:59.293Z,-2.07
2023-02-11T03:34:47.923Z,-2.17
2023-02-11T03:37:23.980Z,-2.19
2023-02-11T03:39:56.801Z,-2.14
2023-02-11T03:42:27.324Z,-2.11
2023-02-11T03:45:04.365Z,-2.07
2023-02-11T03:47:34.856Z,-2.08
2023-02-11T03:50:07.219Z,-2.08
2023-02-11T03:52:37.543Z,-2.09
2023-02-11T03:55:11.654Z,-2.08
2023-02-11T03:57:39.551Z,-2.08
2023-02-11T04:00:08.034Z,-2.13
2023-02-11T04:02:41.944Z,-2.21
2023-02-11T04:05:10.996Z,-2.31
2023-02-11T04:07:38.513Z,-2.42
2023-02-11T04:10:07.674Z,-2.52
2023-02-11T04:12:35.300Z,-2.59
2023-02-11T04:15:02.798Z,-2.67
2023-02-11T04:17:30.942Z,-2.76
2023-02-11T04:19:58.700Z,-2.83
2023-02-11T04:22:26.137Z,-2.86
2023-02-11T04:24:53.495Z,-2.92
2023-02-11T04:27:20.729Z,-3.03
2023-02-11T04:29:48.682Z,-3.18
2023-02-11T04:32:16.422Z,-3.24
2023-02-11T04:34:45.275Z,-3.32
2023-02-11T04:37:13.002Z,-3.35
2023-02-11T04:39:40.716Z,-3.32
2023-02-11T04:42:08.109Z,-3.26
2023-02-11T04:44:35.518Z,-3.18
2023-02-11T04:47:02.937Z,-3.07
2023-02-11T04:49:30.537Z,-3.00
2023-02-11T04:51:58.009Z,-2.90
2023-02-11T04:54:25.338Z,-2.88
2023-02-11T04:56:53.216Z,-2.79
2023-02-11T04:59:21.662Z,-2.67
2023-02-11T05:01:50.221Z,-2.54
2023-02-11T05:04:18.099Z,-2.42
2023-02-11T05:06:45.442Z,-2.28
2023-02-11T05:09:13.339Z,-2.13
2023-02-11T05:11:41.437Z,-2.03
2023-02-11T05:14:08.870Z,-1.86
2023-02-11T05:16:36.986Z,-1.75
2023-02-11T05:19:05.468Z,-1.63
2023-02-11T05:21:33.287Z,-1.51
2023-02-11T05:24:01.582Z,-1.35
2023-02-11T05:26:29.648Z,-1.24
2023-02-11T05:28:58.160Z,-1.13
2023-02-11T05:31:26.848Z,-1.04
2023-02-11T05:33:54.717Z,-0.97
2023-02-11T05:36:22.250Z,-0.95
2023-02-11T05:38:51.153Z,-0.97
2023-02-11T05:41:18.664Z,-0.93
2023-02-11T05:43:51.775Z,-1.00
2023-02-11T05:46:20.802Z,-1.02
2023-02-11T05:48:51.935Z,-1.05
2023-02-11T05:51:19.969Z,-1.07
2023-02-11T05:53:48.920Z,-1.02
2023-02-11T05:56:16.420Z,-0.94
2023-02-11T05:58:45.232Z,-0.88
2023-02-11T06:01:13.472Z,-0.88
2023-02-11T06:03:41.773Z,-0.81
2023-02-11T06:06:13.434Z,-0.74
2023-02-11T06:08:41.652Z,-0.75
2023-02-11T06:11:09.784Z,-0.67
2023-02-11T06:13:38.028Z,-0.60
2023-02-11T06:16:06.692Z,-0.54
2023-02-11T06:18:34.581Z,-0.50
2023-02-11T06:21:02.315Z,-0.26
2023-02-11T06:23:30.664Z,-0.02
2023-02-11T06:26:03.956Z,0.16
2023-02-11T06:28:34.106Z,0.37
2023-02-11T06:31:07.051Z,0.47
2023-02-11T06:33:35.714Z,0.54
2023-02-11T06:36:05.231Z,0.74
2023-02-11T06:38:32.845Z,0.96
2023-02-11T06:41:01.602Z,1.22
2023-02-11T06:43:29.207Z,1.38
2023-02-11T06:45:56.932Z,1.43
2023-02-11T06:48:26.008Z,1.51
2023-02-11T06:50:54.982Z,1.67
2023-02-11T06:53:22.869Z,1.73
2023-02-11T06:55:51.533Z,1.82
2023-02-11T06:58:20.000Z,1.91
2023-02-11T07:00:47.512Z,1.89
2023-02-11T07:03:15.057Z,2.02
2023-02-11T07:05:45.902Z,2.14
2023-02-11T07:08:14.163Z,2.19
2023-02-11T07:10:43.475Z,2.23
2023-02-11T07:13:11.949Z,2.14
2023-02-11T07:15:40.070Z,2.14
2023-02-11T07:18:08.098Z,2.24
2023-02-11T07:20:37.183Z,2.26
2023-02-11T07:23:05.984Z,2.29
2023-02-11T07:25:34.040Z,2.35
2023-02-11T07:28:02.808Z,2.46
2023-02-11T07:31:45.098Z,2.60
2023-02-11T07:34:13.338Z,2.65
2023-02-11T07:36:44.294Z,2.69
2023-02-11T07:39:12.531Z,2.75
2023-02-11T07:41:40.956Z,2.64
2023-02-11T07:44:08.714Z,2.68
2023-02-11T07:46:36.707Z,2.60
2023-02-11T07:49:04.410Z,2.72
2023-02-11T07:51:32.613Z,2.69
2023-02-11T07:54:02.825Z,2.67
2023-02-11T07:56:35.548Z,3.02
2023-02-11T07:59:05.601Z,3.09
2023-02-11T08:01:34.478Z,3.16
2023-02-11T08:04:02.809Z,3.34
2023-02-11T08:06:33.412Z,3.49
2023-02-11T08:09:08.964Z,3.49
2023-02-11T08:11:36.995Z,3.59
2023-02-11T08:14:04.676Z,3.70
2023-02-11T08:16:36.697Z,3.83
2023-02-11T08:19:09.537Z,3.86
2023-02-11T08:21:37.715Z,4.00
2023-02-11T08:24:06.365Z,3.98
2023-02-11T08:26:35.425Z,4.02
2023-02-11T08:29:08.235Z,4.08
2023-02-11T08:31:40.547Z,4.12
2023-02-11T08:34:11.738Z,4.27
2023-02-11T08:36:43.207Z,4.33
2023-02-11T08:39:26.468Z,4.48
2023-02-11T08:41:59.744Z,4.47
2023-02-11T08:44:29.039Z,4.41
2023-02-11T08:46:58.065Z,4.42
2023-02-11T08:49:26.045Z,4.43
2023-02-11T08:51:56.412Z,4.36
2023-02-11T08:54:23.922Z,4.25
2023-02-11T08:56:52.466Z,4.24
2023-02-11T08:59:21.282Z,4.21
2023-02-11T09:01:51.244Z,4.17
2023-02-11T09:04:20.473Z,4.16
2023-02-11T09:06:48.761Z,4.15
2023-02-11T09:09:18.457Z,4.13
2023-02-11T09:11:49.548Z,4.14
2023-02-11T09:14:23.745Z,4.26
2023-02-11T09:16:54.474Z,4.36
2023-02-11T09:19:23.897Z,4.48
2023-02-11T09:21:55.814Z,4.47
2023-02-11T09:24:28.535Z,4.47
2023-02-11T09:26:57.010Z,4.53
2023-02-11T09:29:24.629Z,4.60
2023-02-11T09:31:53.657Z,4.59
2023-02-11T09:34:21.976Z,4.66
2023-02-11T09:36:50.765Z,4.70
2023-02-11T09:39:21.704Z,4.89
2023-02-11T09:41:56.421Z,4.92
2023-02-11T09:44:30.605Z,4.98
2023-02-11T09:47:02.086Z,5.15
2023-02-11T09:50:07.842Z,5.33
2023-02-11T09:52:42.607Z,5.26
2023-02-11T09:55:29.547Z,5.37
2023-02-11T09:57:59.871Z,5.52
2023-02-11T10:01:02.709Z,5.53
2023-02-11T10:04:05.155Z,5.41
2023-02-11T10:06:54.480Z,5.33
2023-02-11T10:09:46.886Z,5.17
2023-02-11T10:12:33.877Z,5.08
2023-02-11T10:15:18.227Z,5.11
2023-02-11T10:18:17.100Z,4.95
2023-02-11T10:20:51.829Z,4.92
2023-02-11T10:23:25.292Z,5.07
2023-02-11T10:25:55.178Z,5.04
2023-02-11T10:28:37.858Z,5.09
2023-02-11T10:31:27.400Z,5.08
2023-02-11T10:33:59.476Z,4.89
2023-02-11T10:36:34.871Z,4.91
2023-02-11T10:39:25.056Z,5.00
2023-02-11T10:41:54.381Z,4.90
2023-02-11T10:44:25.341Z,4.97
2023-02-11T10:46:55.100Z,4.81
2023-02-11T10:49:38.366Z,4.78
2023-02-11T10:52:32.220Z,4.76
2023-02-11T10:55:18.040Z,4.81
2023-02-11T10:58:00.769Z,4.90
2023-02-11T11:00:41.389Z,4.97
2023-02-11T11:03:20.888Z,5.07
2023-02-11T11:05:51.420Z,5.01
2023-02-11T11:08:20.093Z,4.86
2023-02-11T11:11:15.959Z,4.70
2023-02-11T11:14:04.085Z,4.60
2023-02-11T11:16:34.031Z,4.81
2023-02-11T11:19:07.512Z,4.90
2023-02-11T11:21:42.169Z,5.03
2023-02-11T11:24:54.588Z,5.28
2023-02-11T11:27:26.758Z,5.28
2023-02-11T11:29:57.197Z,5.15
2023-02-11T11:32:37.847Z,4.77
2023-02-11T11:35:22.008Z,4.90
2023-02-11T11:37:55.900Z,5.12
2023-02-11T11:40:27.796Z,5.37
2023-02-11T11:43:13.593Z,5.33
2023-02-11T11:45:55.778Z,5.39
2023-02-11T11:48:29.114Z,5.71
2023-02-11T11:51:00.602Z,5.59
2023-02-11T11:53:51.334Z,5.10
2023-02-11T11:56:25.884Z,5.09
2023-02-11T11:58:54.859Z,5.11
2023-02-11T12:01:40.906Z,4.89
2023-02-11T12:04:16.266Z,4.85
2023-02-11T12:07:09.139Z,4.44
2023-02-11T12:10:06.202Z,4.26
2023-02-11T12:12:55.573Z,4.25
2023-02-11T12:15:34.027Z,4.32
2023-02-11T12:18:25.634Z,4.45
2023-02-11T12:21:13.652Z,4.81
2023-02-11T12:24:08.937Z,4.71
2023-02-11T12:27:02.926Z,4.48
2023-02-11T12:29:55.751Z,4.33
2023-02-11T12:32:48.274Z,4.55
2023-02-11T12:35:29.812Z,4.41
2023-02-11T12:37:58.311Z,4.43
2023-02-11T12:40:52.171Z,4.55
2023-02-11T12:43:25.836Z,4.59
2023-02-11T12:46:23.511Z,4.56
2023-02-11T12:49:03.814Z,4.60
2023-02-11T12:51:49.488Z,4.30
2023-02-11T12:55:15.819Z,4.48
2023-02-11T12:57:47.103Z,4.42
2023-02-11T13:00:23.779Z,4.61
2023-02-11T13:03:30.584Z,4.63
2023-02-11T13:06:22.145Z,4.52
2023-02-11T13:09:03.825Z,4.48
2023-02-11T13:11:39.817Z,4.33
2023-02-11T13:14:29.948Z,4.38
2023-02-11T13:16:59.269Z,4.19
2023-02-11T13:19:31.862Z,4.34
2023-02-11T13:22:24.916Z,4.05
2023-02-11T13:25:36.024Z,4.25
2023-02-11T13:28:26.299Z,4.37
2023-02-11T13:31:03.292Z,4.51
2023-02-11T13:33:44.975Z,4.25
2023-02-11T13:36:27.785Z,4.33
2023-02-11T13:39:05.585Z,4.28
2023-02-11T13:41:40.069Z,4.27
2023-02-11T13:44:12.348Z,4.26
2023-02-11T13:46:59.857Z,4.30
2023-02-11T13:49:42.738Z,4.21
2023-02-11T13:52:24.049Z,4.03
2023-02-11T13:54:54.877Z,3.84
2023-02-11T13:57:29.227Z,3.83
2023-02-11T14:00:02.176Z,3.85
2023-02-11T14:02:56.463Z,3.56
2023-02-11T14:05:51.758Z,3.43
2023-02-11T14:08:40.392Z,3.33
2023-02-11T14:11:33.519Z,3.09
2023-02-11T14:14:16.129Z,2.93
2023-02-11T14:17:02.883Z,2.67
2023-02-11T14:19:35.765Z,2.46
2023-02-11T14:22:29.929Z,2.35
2023-02-11T14:25:01.703Z,2.25
2023-02-11T14:27:32.830Z,2.24
2023-02-11T14:30:43.440Z,2.17
2023-02-11T14:33:17.160Z,2.06
2023-02-11T14:36:06.064Z,2.00
2023-02-11T14:38:36.176Z,2.04
2023-02-11T14:41:23.828Z,2.05
2023-02-11T14:43:58.673Z,1.99
2023-02-11T14:46:31.631Z,1.84
2023-02-11T14:49:05.985Z,1.85
2023-02-11T14:51:41.800Z,1.66
2023-02-11T14:54:24.195Z,1.60
2023-02-11T14:57:06.988Z,1.61
2023-02-11T14:59:37.385Z,1.53
2023-02-11T15:02:23.822Z,1.57
2023-02-11T15:04:53.289Z,1.55
2023-02-11T15:07:25.800Z,1.55
2023-02-11T15:09:54.790Z,1.59
2023-02-11T15:12:29.150Z,1.57
2023-02-11T15:15:00.968Z,1.59
2023-02-11T15:17:32.489Z,1.52
2023-02-11T15:20:02.866Z,1.50
2023-02-11T15:22:37.171Z,1.60
2023-02-11T15:25:07.981Z,1.59
2023-02-11T15:27:44.249Z,1.57
2023-02-11T15:30:24.274Z,1.60
2023-02-11T15:33:03.497Z,1.55
2023-02-11T15:35:38.563Z,1.60
2023-02-11T15:38:06.039Z,1.63
2023-02-11T15:40:36.477Z,1.70
2023-02-11T15:43:06.604Z,1.67
2023-02-11T15:45:36.923Z,1.68
2023-02-11T15:48:14.880Z,1.72
2023-02-11T15:50:52.231Z,1.71
2023-02-11T15:53:40.696Z,1.76
2023-02-11T15:56:30.795Z,1.81
2023-02-11T15:59:03.296Z,1.83
2023-02-11T16:01:37.506Z,1.90
2023-02-11T16:04:05.985Z,1.88
2023-02-11T16:06:40.689Z,1.90
2023-02-11T16:09:11.444Z,1.88
2023-02-11T16:11:48.064Z,1.89
2023-02-11T16:14:39.598Z,1.89
2023-02-11T16:17:13.341Z,1.94
2023-02-11T16:19:45.945Z,1.95
2023-02-11T16:22:20.752Z,1.91
2023-02-11T16:24:50.048Z,1.93
2023-02-11T16:27:31.609Z,1.99
2023-02-11T16:29:59.232Z,1.99
2023-02-11T16:32:29.066Z,1.99
2023-02-11T16:34:59.578Z,2.05
2023-02-11T16:37:27.508Z,2.08
2023-02-11T16:39:56.817Z,2.05
2023-02-11T16:42:24.632Z,2.05
2023-02-11T16:44:52.108Z,2.03
2023-02-11T16:47:27.869Z,1.99
2023-02-11T16:49:56.468Z,2.00
2023-02-11T16:52:24.587Z,1.91
2023-02-11T16:54:52.341Z,1.96
2023-02-11T16:57:28.750Z,1.90
2023-02-11T17:00:00.131Z,2.00
2023-02-11T17:02:33.635Z,1.96
2023-02-11T17:05:15.567Z,2.00
2023-02-11T17:07:44.401Z,1.97
2023-02-11T17:10:24.927Z,1.99
2023-02-11T17:12:54.799Z,2.00
2023-02-11T17:15:22.432Z,2.02
2023-02-11T17:17:52.795Z,2.10
2023-02-11T17:20:21.051Z,2.05
2023-02-11T17:22:48.870Z,2.11
2023-02-11T17:25:16.979Z,2.13
2023-02-11T17:27:44.748Z,2.15
2023-02-11T17:30:14.534Z,2.15
2023-02-11T17:32:41.871Z,2.16
2023-02-11T17:35:09.388Z,2.14
2023-02-11T17:37:37.115Z,2.21
2023-02-11T17:40:05.121Z,2.24
2023-02-11T17:42:32.648Z,2.23
2023-02-11T17:44:59.976Z,2.19
2023-02-11T17:47:27.350Z,2.21
2023-02-11T17:49:54.717Z,2.22
2023-02-11T17:52:22.047Z,2.24
2023-02-11T17:54:49.240Z,2.19
2023-02-11T17:57:16.778Z,2.19
2023-02-11T17:59:45.713Z,2.25
2023-02-11T18:02:13.660Z,2.35
2023-02-11T18:04:41.333Z,2.28
2023-02-11T18:07:09.308Z,2.28
2023-02-11T18:09:41.459Z,2.32
2023-02-11T18:12:10.428Z,2.35
2023-02-11T18:14:41.009Z,2.23
2023-02-11T18:17:08.650Z,2.32
2023-02-11T18:19:36.777Z,2.27
2023-02-11T18:22:04.753Z,2.24
2023-02-11T18:24:32.738Z,2.33
2023-02-11T18:27:00.095Z,2.30
2023-02-11T18:29:27.762Z,2.25
2023-02-11T18:31:57.071Z,2.27
2023-02-11T18:34:25.288Z,2.27
2023-02-11T18:36:55.922Z,2.25
2023-02-11T18:39:27.607Z,2.19
2023-02-11T18:41:57.089Z,2.26
2023-02-11T18:44:25.157Z,2.15
2023-02-11T18:46:53.858Z,2.02
2023-02-11T18:49:22.695Z,2.02
2023-02-11T18:51:50.611Z,1.99
2023-02-11T18:54:17.801Z,1.98
2023-02-11T18:56:45.699Z,1.99
2023-02-11T18:59:13.662Z,1.93
2023-02-11T19:01:43.667Z,1.89
2023-02-11T19:04:12.020Z,1.94
2023-02-11T19:06:39.704Z,1.90
2023-02-11T19:09:10.804Z,1.97
2023-02-11T19:11:51.107Z,1.90
2023-02-11T19:14:25.344Z,1.91
2023-02-11T19:16:58.464Z,1.90
2023-02-11T19:19:28.705Z,1.87
2023-02-11T19:21:57.558Z,1.98
2023-02-11T19:24:25.605Z,1.98
2023-02-11T19:26:56.759Z,1.97
2023-02-11T19:29:24.622Z,1.96
2023-02-11T19:31:51.942Z,2.03
2023-02-11T19:34:21.108Z,2.06
2023-02-11T19:36:49.908Z,2.06
2023-02-11T19:39:18.706Z,2.01
2023-02-11T19:41:47.946Z,2.09
2023-02-11T19:44:16.604Z,2.07
2023-02-11T19:46:44.664Z,2.12
2023-02-11T19:49:16.035Z,2.14
2023-02-11T19:51:44.717Z,2.11
2023-02-11T19:54:14.994Z,2.03
2023-02-11T19:56:43.579Z,2.01
2023-02-11T19:59:13.093Z,1.91
2023-02-11T20:01:41.116Z,1.92
2023-02-11T20:04:08.835Z,1.86
2023-02-11T20:06:36.535Z,1.79
2023-02-11T20:09:14.176Z,1.76
2023-02-11T20:11:42.957Z,1.77
2023-02-11T20:14:13.302Z,1.70
2023-02-11T20:16:49.040Z,1.70
2023-02-11T20:19:22.333Z,1.67
2023-02-11T20:21:52.766Z,1.65
2023-02-11T20:24:22.725Z,1.63
2023-02-11T20:26:53.702Z,1.60
2023-02-11T20:29:30.915Z,1.56
2023-02-11T20:31:58.848Z,1.54
2023-02-11T20:34:27.276Z,1.55
2023-02-11T20:36:55.286Z,1.53
2023-02-11T20:39:24.790Z,1.47
2023-02-11T20:41:55.115Z,1.44
2023-02-11T20:44:23.548Z,1.47
2023-02-11T20:46:51.881Z,1.49
2023-02-11T20:49:23.249Z,1.49
2023-02-11T20:51:54.319Z,1.48
2023-02-11T20:54:23.514Z,1.48
2023-02-11T20:56:51.432Z,1.48
2023-02-11T20:59:21.583Z,1.47
2023-02-11T21:01:53.920Z,1.50
2023-02-11T21:04:24.377Z,1.49
2023-02-11T21:06:56.512Z,1.49
2023-02-11T21:09:28.080Z,1.48
2023-02-11T21:11:57.312Z,1.46
2023-02-11T21:14:26.410Z,1.53
2023-02-11T21:16:55.331Z,1.48
2023-02-11T21:19:22.666Z,1.41
2023-02-11T21:21:50.998Z,1.48
2023-02-11T21:24:18.933Z,1.49
2023-02-11T21:26:46.311Z,1.48
2023-02-11T21:29:14.910Z,1.51
2023-02-11T21:31:42.492Z,1.46
2023-02-11T21:34:11.238Z,1.47
2023-02-11T21:36:40.589Z,1.50
2023-02-11T21:39:09.261Z,1.51
2023-02-11T21:41:36.851Z,1.49
2023-02-11T21:44:04.425Z,1.54
2023-02-11T21:46:32.897Z,1.48
2023-02-11T21:49:00.891Z,1.53
2023-02-11T21:51:28.566Z,1.50
2023-02-11T21:53:58.714Z,1.50
2023-02-11T21:56:28.460Z,1.51
2023-02-11T21:58:59.924Z,1.51
2023-02-11T22:01:33.328Z,1.51
2023-02-11T22:04:00.898Z,1.53
2023-02-11T22:06:31.559Z,1.50
2023-02-11T22:09:02.304Z,1.54
2023-02-11T22:11:29.737Z,1.52
2023-02-11T22:13:58.040Z,1.51
2023-02-11T22:16:27.777Z,1.53
2023-02-11T22:18:58.733Z,1.46
2023-02-11T22:21:27.122Z,1.54
2023-02-11T22:23:55.772Z,1.52
2023-02-11T22:26:25.405Z,1.53
2023-02-11T22:28:55.028Z,1.48
2023-02-11T22:31:29.374Z,1.55
2023-02-11T22:33:57.516Z,1.53
2023-02-11T22:36:28.094Z,1.55
2023-02-11T22:38:56.170Z,1.53
2023-02-11T22:41:24.184Z,1.44
2023-02-11T22:43:52.379Z,1.47
2023-02-11T22:46:20.170Z,1.42
2023-02-11T22:48:50.847Z,1.36
2023-02-11T22:51:23.501Z,1.40
2023-02-11T22:53:59.281Z,1.42
2023-02-11T22:56:28.742Z,1.38
2023-02-11T22:59:05.086Z,1.33
2023-02-11T23:01:33.560Z,1.31
2023-02-11T23:04:03.125Z,1.39
2023-02-11T23:06:30.840Z,1.32
2023-02-11T23:08:58.289Z,1.36
2023-02-11T23:11:28.631Z,1.42
2023-02-11T23:13:56.691Z,1.42
2023-02-11T23:16:27.568Z,1.44
2023-02-11T23:18:55.799Z,1.40
2023-02-11T23:21:28.866Z,1.48
2023-02-11T23:23:59.132Z,1.44
2023-02-11T23:26:27.006Z,1.52
2023-02-11T23:28:54.982Z,1.50
2023-02-11T23:31:26.400Z,1.55
2023-02-11T23:33:56.538Z,1.51
2023-02-11T23:36:24.132Z,1.56
2023-02-11T23:38:51.656Z,1.59
2023-02-11T23:41:19.177Z,1.63
2023-02-11T23:43:52.131Z,1.71
2023-02-11T23:46:20.048Z,1.75
2023-02-11T23:48:47.709Z,1.81
2023-02-11T23:51:15.035Z,1.75
2023-02-11T23:53:42.288Z,1.74
2023-02-11T23:56:13.839Z,1.79
2023-02-11T23:58:51.020Z,1.81
